Time;durP1;ratioP1;P1;durP2;ratioP2;P2;SDS_P1;SDS_P2;PMS_P1;PMS_P2;Temp;Humidity;BMP_temperature;BMP_pressure;BME280_temperature;BME280_humidity;BME280_pressure;Samples;Min_cycle;Max_cycle;Signal;HPM_P1;HPM_P2
2022/03/02 07:19:18;;;;;;;;;50.25;41.50;;;;;12.48;100.00;101724.31;6323271;22;45437;-94
2022/03/02 07:21:46;;;;;;;;;49.25;39.25;;;;;12.62;100.00;101743.50;6360023;22;45687;-94
2022/03/02 07:24:17;;;;;;;;;49.00;38.75;;;;;12.60;100.00;101732.88;6359059;22;45330;-90
2022/03/02 07:26:45;;;;;;;;;49.75;40.00;;;;;12.74;100.00;101748.50;6330032;22;47098;-87
2022/03/02 07:29:14;;;;;;;;;44.25;39.50;;;;;12.76;100.00;101740.66;6332800;22;45397;-87
2022/03/02 07:31:41;;;;;;;;;52.00;40.00;;;;;12.83;100.00;101740.19;6330827;22;45587;-87
2022/03/02 07:34:11;;;;;;;;;40.50;35.50;;;;;12.87;100.00;101734.25;6333097;22;45334;-87
2022/03/02 07:36:37;;;;;;;;;50.00;39.00;;;;;12.90;100.00;101736.13;6332708;22;45502;-89
2022/03/02 07:39:02;;;;;;;;;40.00;37.25;;;;;12.94;100.00;101739.00;6333602;22;45285;-86
2022/03/02 07:41:29;;;;;;;;;52.50;41.50;;;;;13.03;100.00;101737.66;6332353;22;45335;-87
2022/03/02 07:43:54;;;;;;;;;36.00;33.00;;;;;13.07;100.00;101736.97;6332848;22;45303;-86
2022/03/02 07:46:20;;;;;;;;;47.00;39.50;;;;;13.17;100.00;101738.34;6333144;22;46614;-87
2022/03/02 07:48:45;;;;;;;;;46.50;40.25;;;;;13.21;100.00;101728.88;6333495;22;45291;-87
2022/03/02 07:51:10;;;;;;;;;49.00;38.00;;;;;13.26;100.00;101730.03;6332108;22;45446;-87
2022/03/02 07:54:03;;;;;;;;;51.75;40.00;;;;;13.38;100.00;101721.81;6333008;22;45329;-87
2022/03/02 07:56:31;;;;;;;;;44.75;37.75;;;;;13.42;100.00;101723.78;6329668;22;48060;-87
2022/03/02 07:59:05;;;;;;;;;44.75;39.25;;;;;13.52;100.00;101714.59;6330209;22;45426;-86
2022/03/02 08:01:34;;;;;;;;;46.50;36.75;;;;;13.57;100.00;101720.13;6327631;22;45633;-87
2022/03/02 08:04:04;;;;;;;;;48.75;38.50;;;;;13.63;100.00;101723.94;6332723;22;45328;-87
2022/03/02 08:06:31;;;;;;;;;43.25;38.50;;;;;13.67;100.00;101722.38;6330091;22;47982;-87
2022/03/02 08:08:57;;;;;;;;;44.50;38.00;;;;;13.75;100.00;101717.47;6330806;22;45370;-87
2022/03/02 08:11:23;;;;;;;;;49.75;39.25;;;;;13.85;100.00;101727.63;6329502;22;45272;-87
2022/03/02 08:13:48;;;;;;;;;51.50;38.75;;;;;13.88;100.00;101723.31;6332475;22;45312;-87
2022/03/02 08:16:15;;;;;;;;;41.75;34.50;;;;;13.98;100.00;101725.56;6330192;22;45590;-87
2022/03/02 08:18:40;;;;;;;;;49.50;37.00;;;;;14.02;100.00;101726.63;6330356;22;45337;-86
2022/03/02 08:21:08;;;;;;;;;44.25;38.50;;;;;14.11;100.00;101728.78;6332335;22;45658;-87
2022/03/02 08:23:38;;;;;;;;;46.50;38.75;;;;;14.18;100.00;101726.50;6335384;22;45686;-86
2022/03/02 08:26:05;;;;;;;;;56.75;42.00;;;;;14.23;100.00;101723.16;6344665;22;46116;-87
2022/03/02 08:28:33;;;;;;;;;48.00;41.00;;;;;14.28;100.00;101721.63;6345116;22;45242;-87
2022/03/02 08:30:59;;;;;;;;;51.25;39.25;;;;;14.26;100.00;101713.66;6348356;22;45276;-87
2022/03/02 08:33:31;;;;;;;;;48.00;42.00;;;;;14.33;100.00;101713.94;6337153;22;45378;-87
2022/03/02 08:35:57;;;;;;;;;47.50;38.50;;;;;14.42;100.00;101716.97;6331959;22;46249;-87
2022/03/02 08:38:24;;;;;;;;;42.25;36.75;;;;;14.50;100.00;101722.63;6336596;22;45523;-89
2022/03/02 08:40:50;;;;;;;;;52.25;40.00;;;;;14.59;100.00;101724.75;6328125;22;45872;-94
2022/03/02 08:43:16;;;;;;;;;54.00;38.75;;;;;14.57;100.00;101724.69;6327462;22;45466;-90
2022/03/02 08:45:47;;;;;;;;;45.25;38.50;;;;;14.70;100.00;101728.78;6329208;22;48242;-90
2022/03/02 08:48:15;;;;;;;;;40.50;37.25;;;;;14.75;100.00;101723.69;6357060;22;45313;-91
2022/03/02 08:50:42;;;;;;;;;51.75;39.75;;;;;14.82;100.00;101724.84;6332047;22;45326;-91
2022/03/02 08:53:12;;;;;;;;;38.00;29.25;;;;;14.90;100.00;101723.50;6331116;22;45352;-90
2022/03/02 08:55:39;;;;;;;;;42.00;37.00;;;;;14.97;100.00;101725.56;6355498;22;46960;-90
2022/03/02 08:58:04;;;;;;;;;44.50;37.75;;;;;15.00;100.00;101719.50;6354788;22;45444;-91
2022/03/02 09:00:32;;;;;;;;;41.50;37.00;;;;;15.12;100.00;101718.22;6356976;22;45331;-91
2022/03/02 09:02:59;;;;;;;;;45.75;36.25;;;;;15.21;100.00;101710.66;6329887;22;45475;-91
2022/03/02 09:05:27;;;;;;;;;42.25;37.75;;;;;15.33;100.00;101706.75;6355533;22;47119;-91
2022/03/02 09:07:53;;;;;;;;;43.25;36.50;;;;;15.33;100.00;101699.72;6355042;22;45816;-90
2022/03/02 09:10:19;;;;;;;;;48.75;38.75;;;;;15.43;100.00;101695.69;6330131;22;45183;-92
2022/03/02 09:12:44;;;;;;;;;44.75;39.25;;;;;15.52;100.00;101698.69;6354795;22;45325;-90
2022/03/02 09:15:10;;;;;;;;;41.00;36.00;;;;;15.58;100.00;101697.16;6332131;22;46320;-91
2022/03/02 09:17:35;;;;;;;;;51.25;39.50;;;;;15.67;100.00;101697.50;6328987;22;45312;-92
2022/03/02 09:20:02;;;;;;;;;49.25;37.50;;;;;15.72;100.00;101693.28;6356408;22;45452;-86
2022/03/02 09:22:29;;;;;;;;;49.00;39.50;;;;;15.84;100.00;101698.19;6331867;22;45369;-86
2022/03/02 09:24:56;;;;;;;;;52.75;38.75;;;;;15.97;100.00;101686.31;6331912;22;45594;-86
2022/03/02 09:27:26;;;;;;;;;44.00;37.75;;;;;16.05;100.00;101689.28;6327873;22;45925;-87
2022/03/02 09:29:53;;;;;;;;;51.25;40.75;;;;;16.21;100.00;101692.50;6329455;22;45359;-87
2022/03/02 09:32:19;;;;;;;;;51.75;42.50;;;;;16.27;100.00;101692.72;6330748;22;45421;-87
2022/03/02 09:34:46;;;;;;;;;52.50;41.50;;;;;16.36;100.00;101699.22;6332139;22;46116;-87
2022/03/02 09:37:15;;;;;;;;;44.50;38.50;;;;;16.46;100.00;101696.06;6329511;22;46008;-87
2022/03/02 09:39:42;;;;;;;;;45.50;37.75;;;;;16.53;100.00;101699.81;6331690;22;45339;-87
2022/03/02 09:42:14;;;;;;;;;45.75;38.50;;;;;16.69;100.00;101703.03;6326293;22;45426;-89
2022/03/02 09:44:45;;;;;;;;;46.75;36.00;;;;;16.78;100.00;101691.81;6332375;22;45352;-88
2022/03/02 09:47:16;;;;;;;;;51.75;38.25;;;;;16.88;100.00;101695.72;6329969;22;45245;-88
2022/03/02 09:49:54;;;;;;;;;49.00;38.25;;;;;16.98;100.00;101701.38;6334094;22;45232;-89
2022/03/02 09:52:20;;;;;;;;;52.25;42.25;;;;;16.98;100.00;101705.81;6332038;22;45370;-86
2022/03/02 09:54:52;;;;;;;;;50.25;39.00;;;;;17.05;100.00;101701.59;6329576;22;46472;-86
2022/03/02 09:57:19;;;;;;;;;54.25;40.75;;;;;17.03;100.00;101704.22;6327782;22;45713;-87
2022/03/02 09:59:52;;;;;;;;;49.00;38.00;;;;;17.12;100.00;101703.59;6334409;22;45545;-87
2022/03/02 10:02:38;;;;;;;;;44.75;38.00;;;;;17.20;100.00;101702.16;6355132;22;45363;-86
2022/03/02 10:05:08;;;;;;;;;53.00;37.75;;;;;17.15;100.00;101693.09;6329695;22;47263;-86
2022/03/02 10:07:37;;;;;;;;;49.50;38.75;;;;;17.17;100.00;101699.38;6330691;22;45425;-86
2022/03/02 10:10:17;;;;;;;;;49.75;38.00;;;;;17.32;100.00;101698.06;6330407;22;45359;-92
2022/03/02 10:12:43;;;;;;;;;49.00;38.00;;;;;17.35;100.00;101687.56;6328913;22;45398;-87
2022/03/02 10:15:14;;;;;;;;;51.00;39.50;;;;;17.49;100.00;101688.03;6357409;22;47278;-86
2022/03/02 10:17:41;;;;;;;;;47.50;39.50;;;;;17.58;100.00;101695.34;6330394;22;45284;-87
2022/03/02 10:20:10;;;;;;;;;45.75;39.50;;;;;17.70;100.00;101686.00;6333577;22;45291;-89
2022/03/02 10:22:47;;;;;;;;;48.50;38.25;;;;;17.90;100.00;101675.06;6332304;22;45425;-87
2022/03/02 10:25:15;;;;;;;;;52.75;41.00;;;;;17.98;100.00;101673.53;6331027;22;48381;-88
2022/03/02 10:28:02;;;;;;;;;50.50;41.00;;;;;18.14;100.00;101682.84;6329595;22;45819;-89
2022/03/02 10:30:39;;;;;;;;;48.50;39.00;;;;;18.28;100.00;101680.63;6331006;22;45268;-89
2022/03/02 10:33:25;;;;;;;;;56.00;42.50;;;;;18.40;100.00;101676.53;6333546;22;45288;-89
2022/03/02 10:36:00;;;;;;;;;51.75;38.00;;;;;18.48;100.00;101671.38;6358134;22;47179;-89
2022/03/02 10:38:43;;;;;;;;;48.50;40.00;;;;;18.72;100.00;101665.84;6331269;22;45262;-88
2022/03/02 10:41:09;;;;;;;;;57.00;44.00;;;;;18.81;100.00;101658.97;6330565;22;45510;-89
2022/03/02 10:43:41;;;;;;;;;45.00;37.00;;;;;19.11;100.00;101663.25;6333189;22;45331;-88
2022/03/02 10:46:09;;;;;;;;;48.50;37.75;;;;;19.25;100.00;101658.28;6356082;22;47189;-90
2022/03/02 10:48:42;;;;;;;;;49.75;40.00;;;;;19.37;100.00;101657.69;6331341;22;45356;-89
2022/03/02 10:51:10;;;;;;;;;46.00;38.50;;;;;19.48;100.00;101649.06;6331516;22;45285;-89
2022/03/02 10:53:40;;;;;;;;;53.75;38.50;;;;;19.61;100.00;101656.44;6338634;22;45351;-88
2022/03/02 10:56:08;;;;;;;;;56.50;43.50;;;;;19.65;100.00;101649.44;6337451;22;46448;-88
2022/03/02 10:58:35;;;;;;;;;50.75;39.00;;;;;19.67;100.00;101647.69;6332558;22;45319;-88
2022/03/02 11:01:01;;;;;;;;;47.25;38.25;;;;;19.71;100.00;101652.25;6333459;22;45677;-89
2022/03/02 11:03:35;;;;;;;;;52.25;43.50;;;;;19.76;100.00;101641.69;6333186;22;45356;-88
2022/03/02 11:06:02;;;;;;;;;49.50;39.00;;;;;19.75;100.00;101635.44;6330544;22;48780;-89
2022/03/02 11:08:29;;;;;;;;;49.50;39.25;;;;;19.85;100.00;101635.63;6334405;22;45624;-89
2022/03/02 11:10:55;;;;;;;;;52.75;41.50;;;;;19.92;100.00;101650.00;6330852;22;45284;-87
2022/03/02 11:13:22;;;;;;;;;51.50;40.50;;;;;19.92;100.00;101636.69;6333049;22;45232;-88
2022/03/02 11:16:00;;;;;;;;;54.00;42.25;;;;;20.03;100.00;101629.78;6332520;22;46669;-87
2022/03/02 11:18:40;;;;;;;;;46.75;39.50;;;;;20.05;100.00;101628.03;6330897;22;45332;-86
2022/03/02 11:21:12;;;;;;;;;48.25;40.50;;;;;20.09;100.00;101631.69;6333655;22;45322;-85
2022/03/02 11:24:05;;;;;;;;;52.25;40.75;;;;;20.10;100.00;101626.38;6333407;22;45273;-89
2022/03/02 11:26:34;;;;;;;;;50.00;39.00;;;;;20.13;100.00;101630.91;6329769;22;46250;-88
2022/03/02 11:29:07;;;;;;;;;50.50;41.00;;;;;20.21;100.00;101620.38;6332425;22;45262;-88
2022/03/02 11:31:46;;;;;;;;;48.00;39.00;;;;;20.32;100.00;101621.50;6331283;22;45356;-89
2022/03/02 11:34:22;;;;;;;;;54.00;40.25;;;;;20.44;100.00;101625.25;6330899;22;45512;-87
2022/03/02 11:36:50;;;;;;;;;48.75;41.25;;;;;20.49;100.00;101623.56;6332981;22;45455;-87
2022/03/02 11:39:19;;;;;;;;;53.00;42.25;;;;;20.61;100.00;101614.91;6330890;22;45467;-89
2022/03/02 11:41:46;;;;;;;;;48.75;39.75;;;;;20.67;100.00;101605.22;6330387;22;45315;-90
2022/03/02 11:44:34;;;;;;;;;50.50;40.00;;;;;20.74;100.00;101596.44;6331927;22;45255;-89
2022/03/02 11:47:04;;;;;;;;;48.25;37.25;;;;;20.76;100.00;101608.94;6332537;22;46273;-88
2022/03/02 11:49:50;;;;;;;;;47.75;38.50;;;;;20.84;100.00;101608.16;6331069;22;45317;-90
2022/03/02 11:52:24;;;;;;;;;48.75;40.00;;;;;20.96;100.00;101597.66;6330569;22;45712;-88
2022/03/02 11:54:53;;;;;;;;;52.25;39.75;;;;;21.08;100.00;101599.66;6333822;22;45324;-89
2022/03/02 11:57:21;;;;;;;;;48.50;39.50;;;;;21.20;100.00;101606.06;6331289;22;45385;-87
2022/03/02 11:59:48;;;;;;;;;50.00;42.00;;;;;21.24;100.00;101594.53;6331834;22;45372;-88
2022/03/02 12:02:19;;;;;;;;;53.50;42.00;;;;;21.30;100.00;101591.06;6331825;22;45385;-92
2022/03/02 12:04:59;;;;;;;;;48.25;40.25;;;;;21.39;100.00;101591.19;6349498;22;45406;-88
2022/03/02 12:07:25;;;;;;;;;50.75;41.75;;;;;21.47;100.00;101579.69;6350589;22;45633;-88
2022/03/02 12:09:50;;;;;;;;;53.00;40.25;;;;;21.65;100.00;101579.94;6351361;22;45187;-87
2022/03/02 12:12:21;;;;;;;;;49.00;40.50;;;;;21.94;100.00;101583.88;6350021;22;45226;-89
2022/03/02 12:14:57;;;;;;;;;50.50;39.00;;;;;22.10;100.00;101578.69;6334257;22;45630;-90
2022/03/02 12:17:33;;;;;;;;;50.00;39.00;;;;;22.05;100.00;101567.97;6331526;22;47276;-90
2022/03/02 12:20:00;;;;;;;;;48.25;38.00;;;;;22.26;100.00;101569.06;6331726;22;45459;-90
2022/03/02 12:22:35;;;;;;;;;52.00;40.00;;;;;22.44;100.00;101567.44;6331151;22;45339;-90
2022/03/02 12:25:01;;;;;;;;;48.25;38.50;;;;;22.49;100.00;101568.38;6333500;22;45304;-89
2022/03/02 12:27:27;;;;;;;;;43.00;37.00;;;;;22.48;100.00;101558.53;6330774;22;46471;-90
2022/03/02 12:29:56;;;;;;;;;49.00;37.25;;;;;22.58;100.00;101564.84;6333702;22;45339;-90
2022/03/02 12:32:26;;;;;;;;;51.75;40.50;;;;;22.50;100.00;101559.44;6332979;22;45287;-90
2022/03/02 12:34:51;;;;;;;;;50.25;38.50;;;;;22.29;100.00;101557.50;6333391;22;45465;-90
2022/03/02 12:37:20;;;;;;;;;47.25;39.00;;;;;22.12;100.00;101558.22;6329330;22;47201;-90
2022/03/02 12:39:47;;;;;;;;;48.50;39.25;;;;;21.90;100.00;101559.78;6333173;22;45243;-90
2022/03/02 12:42:13;;;;;;;;;50.00;38.50;;;;;21.74;100.00;101551.56;6330875;22;45380;-90
2022/03/02 12:44:50;;;;;;;;;42.25;36.50;;;;;21.82;100.00;101557.88;6330878;22;45375;-90
2022/03/02 12:47:22;;;;;;;;;46.25;37.75;;;;;21.87;100.00;101553.53;6332387;22;45502;-90
2022/03/02 12:49:50;;;;;;;;;49.00;38.75;;;;;21.93;100.00;101552.66;6330645;22;45581;-90
2022/03/02 12:52:16;;;;;;;;;47.75;39.50;;;;;21.98;100.00;101548.28;6329892;22;45335;-89
2022/03/02 12:54:42;;;;;;;;;48.25;38.75;;;;;22.09;100.00;101543.03;6328175;22;45671;-90
2022/03/02 12:57:11;;;;;;;;;51.25;41.00;;;;;22.17;100.00;101542.22;6330274;22;45405;-88
2022/03/02 12:59:36;;;;;;;;;49.50;41.00;;;;;22.23;100.00;101552.97;6330810;22;45325;-90
2022/03/02 13:02:10;;;;;;;;;53.50;40.00;;;;;22.38;100.00;101549.56;6332372;22;45339;-90
2022/03/02 13:04:39;;;;;;;;;50.00;42.00;;;;;22.51;100.00;101533.59;6330197;22;45550;-90
2022/03/02 13:07:12;;;;;;;;;48.00;39.50;;;;;22.59;100.00;101539.00;6331659;22;45366;-89
2022/03/02 13:09:46;;;;;;;;;49.25;38.50;;;;;22.64;100.00;101547.97;6329511;22;45843;-89
2022/03/02 13:12:28;;;;;;;;;47.25;37.75;;;;;22.65;100.00;101539.06;6328380;22;45438;-91
2022/03/02 13:14:54;;;;;;;;;48.50;39.25;;;;;22.57;100.00;101536.34;6330243;22;45407;-89
2022/03/02 13:17:21;;;;;;;;;48.00;40.00;;;;;22.75;100.00;101540.97;6331373;22;46332;-89
2022/03/02 13:19:53;;;;;;;;;50.25;39.00;;;;;22.93;100.00;101533.94;6330446;22;45733;-89
2022/03/02 13:22:25;;;;;;;;;51.50;38.50;;;;;23.07;100.00;101535.78;6331558;22;45319;-89
2022/03/02 13:24:53;;;;;;;;;51.75;39.75;;;;;23.06;100.00;101528.66;6329651;22;45498;-89
2022/03/02 13:27:19;;;;;;;;;48.25;39.50;;;;;22.99;100.00;101530.38;6330006;22;45672;-89
2022/03/02 13:29:55;;;;;;;;;48.50;40.25;;;;;22.98;100.00;101533.97;6330773;22;45907;-90
2022/03/02 13:32:21;;;;;;;;;48.00;38.00;;;;;22.82;100.00;101538.31;6330297;22;45371;-90
2022/03/02 13:35:05;;;;;;;;;44.00;37.75;;;;;22.79;100.00;101532.94;6330231;22;45288;-90
2022/03/02 13:37:58;;;;;;;;;50.00;38.25;;;;;22.64;100.00;101538.16;6329747;22;48392;-90
2022/03/02 13:40:36;;;;;;;;;50.00;40.00;;;;;22.58;100.00;101535.44;6331806;22;45262;-90
2022/03/02 13:43:10;;;;;;;;;49.25;38.25;;;;;22.52;100.00;101536.28;6328377;22;45313;-89
2022/03/02 13:45:45;;;;;;;;;49.00;38.25;;;;;22.45;100.00;101531.75;6332312;22;45398;-89
2022/03/02 13:48:17;;;;;;;;;47.00;38.25;;;;;22.46;100.00;101533.56;6329890;22;47325;-90
2022/03/02 13:51:12;;;;;;;;;46.00;36.75;;;;;22.40;100.00;101528.16;6332112;22;45670;-90
2022/03/02 13:53:44;;;;;;;;;48.50;39.50;;;;;22.29;100.00;101534.31;6331888;22;45401;-89
2022/03/02 13:56:11;;;;;;;;;43.00;36.50;;;;;22.18;100.00;101534.22;6329109;22;45362;-91
2022/03/02 13:58:39;;;;;;;;;49.50;39.75;;;;;22.12;100.00;101522.56;6329371;22;48041;-91
2022/03/02 14:01:12;;;;;;;;;46.75;37.25;;;;;22.15;100.00;101530.63;6329305;22;45896;-88
2022/03/02 14:03:43;;;;;;;;;46.25;38.00;;;;;22.04;100.00;101525.16;6329974;22;45328;-89
2022/03/02 14:06:14;;;;;;;;;48.75;38.50;;;;;22.03;100.00;101521.63;6331845;22;45387;-88
2022/03/02 14:08:53;;;;;;;;;51.00;40.75;;;;;22.06;100.00;101518.94;6329628;22;48276;-88
2022/03/02 14:11:42;;;;;;;;;47.75;39.00;;;;;22.10;100.00;101519.88;6328658;22;45285;-88
2022/03/02 14:14:15;;;;;;;;;46.50;38.00;;;;;22.04;100.00;101522.47;6329026;22;45305;-89
2022/03/02 14:17:02;;;;;;;;;51.25;41.25;;;;;22.01;100.00;101528.69;6329355;22;45256;-88
2022/03/02 14:19:35;;;;;;;;;46.50;37.00;;;;;21.85;100.00;101524.97;6331808;22;45672;-88
2022/03/02 14:22:13;;;;;;;;;43.75;34.75;;;;;21.79;100.00;101520.44;6329330;22;45278;-88
2022/03/02 14:24:40;;;;;;;;;51.25;40.25;;;;;21.64;100.00;101526.50;6331967;22;45350;-88
2022/03/02 14:27:15;;;;;;;;;46.00;36.50;;;;;21.63;100.00;101527.38;6327575;22;45468;-90
2022/03/02 14:29:53;;;;;;;;;47.25;38.25;;;;;21.51;100.00;101523.69;6329266;22;47170;-89
2022/03/02 14:32:28;;;;;;;;;44.75;36.75;;;;;21.30;100.00;101522.56;6329722;22;45281;-88
2022/03/02 14:34:59;;;;;;;;;51.25;40.75;;;;;21.41;100.00;101521.78;6331235;22;45400;-88
2022/03/02 14:37:51;;;;;;;;;51.50;40.00;;;;;21.42;100.00;101519.13;6330367;22;45346;-88
2022/03/02 14:40:19;;;;;;;;;47.75;36.50;;;;;21.34;100.00;101517.25;6330162;22;46686;-88
2022/03/02 14:42:52;;;;;;;;;48.25;39.25;;;;;21.30;100.00;101514.53;6331087;22;45706;-89
2022/03/02 14:45:28;;;;;;;;;45.75;37.25;;;;;21.32;100.00;101517.22;6333443;22;45302;-91
2022/03/02 14:47:59;;;;;;;;;40.50;37.25;;;;;21.26;100.00;101517.16;6357488;22;45439;-87
2022/03/02 14:50:29;;;;;;;;;44.25;36.75;;;;;21.18;100.00;101512.59;6333443;22;45365;-88
2022/03/02 14:52:58;;;;;;;;;45.75;37.25;;;;;21.16;100.00;101517.00;6332449;22;45306;-88
2022/03/02 14:55:27;;;;;;;;;45.75;36.25;;;;;21.17;100.00;101507.25;6332761;22;45589;-88
2022/03/02 14:57:53;;;;;;;;;44.25;37.50;;;;;21.13;100.00;101500.06;6331455;22;45251;-88
2022/03/02 15:00:18;;;;;;;;;49.75;39.25;;;;;21.14;100.00;101491.19;6357670;22;47882;-89
2022/03/02 15:02:44;;;;;;;;;47.00;38.25;;;;;21.12;100.00;101498.28;6333328;22;45294;-91
2022/03/02 15:05:09;;;;;;;;;48.00;38.00;;;;;21.08;100.00;101494.69;6362956;22;45413;-86
2022/03/02 15:07:37;;;;;;;;;45.00;38.25;;;;;21.04;100.00;101493.72;6332741;22;45338;-87
2022/03/02 15:10:11;;;;;;;;;45.50;35.75;;;;;20.95;100.00;101494.47;6332904;22;45431;-86
2022/03/02 15:14:58;;;;;;;;;45.75;38.00;;;;;20.84;100.00;101493.44;6330893;22;45330;-88
2022/03/02 15:15:32;;;;;;;;;49.75;41.25;;;;;20.65;100.00;101490.47;6333110;22;45328;-87
2022/03/02 15:17:58;;;;;;;;;47.75;35.50;;;;;20.62;100.00;101495.75;6333279;22;45439;-86
2022/03/02 15:20:25;;;;;;;;;53.25;39.50;;;;;20.59;100.00;101498.41;6332689;22;46807;-87
2022/03/02 15:22:56;;;;;;;;;46.00;37.75;;;;;20.55;100.00;101489.44;6331556;22;45372;-89
2022/03/02 15:25:21;;;;;;;;;43.50;35.75;;;;;20.45;100.00;101488.41;6332614;22;45361;-88
2022/03/02 15:28:07;;;;;;;;;49.25;39.50;;;;;20.44;100.00;101483.94;6330055;22;45473;-91
2022/03/02 15:30:35;;;;;;;;;51.00;38.00;;;;;20.28;100.00;101480.13;6350489;22;47893;-91
2022/03/02 15:33:06;;;;;;;;;46.50;36.00;;;;;20.25;100.00;101488.97;6333441;22;45241;-91
2022/03/02 15:35:33;;;;;;;;;43.75;34.50;;;;;20.14;100.00;101495.88;6333205;22;45332;-91
2022/03/02 15:37:58;;;;;;;;;48.25;37.75;;;;;20.05;100.00;101491.28;6331194;22;45299;-92
2022/03/02 15:40:26;;;;;;;;;51.00;40.75;;;;;19.99;100.00;101484.97;6357871;22;47636;-88
2022/03/02 15:43:03;;;;;;;;;45.75;37.00;;;;;19.98;100.00;101480.50;6332166;22;45276;-89
2022/03/02 15:45:29;;;;;;;;;49.25;39.00;;;;;19.85;100.00;101486.47;6344957;22;45264;-89
2022/03/02 15:47:57;;;;;;;;;47.25;39.25;;;;;19.84;100.00;101490.88;6351655;22;45220;-89
2022/03/02 15:50:29;;;;;;;;;50.00;37.75;;;;;19.84;100.00;101485.56;6347904;22;45291;-89
2022/03/02 15:52:58;;;;;;;;;49.50;39.75;;;;;19.78;100.00;101488.13;6346487;22;45233;-89
2022/03/02 15:55:24;;;;;;;;;47.25;39.50;;;;;19.68;100.00;101480.81;6333474;22;45379;-89
2022/03/02 15:57:59;;;;;;;;;50.00;39.00;;;;;19.69;100.00;101477.31;6328520;22;45308;-89
2022/03/02 16:00:28;;;;;;;;;41.25;35.00;;;;;19.65;100.00;101473.66;6333418;22;45596;-89
2022/03/02 16:02:54;;;;;;;;;46.25;37.25;;;;;19.59;100.00;101485.09;6332608;22;45208;-89
2022/03/02 16:05:25;;;;;;;;;49.75;38.25;;;;;19.60;100.00;101483.34;6332499;22;45900;-89
2022/03/02 16:08:11;;;;;;;;;51.25;39.25;;;;;19.52;100.00;101480.53;6330169;22;45618;-88
2022/03/02 16:10:38;;;;;;;;;48.50;37.25;;;;;19.40;100.00;101467.88;6330324;22;48225;-88
2022/03/02 16:13:18;;;;;;;;;46.50;38.00;;;;;19.41;100.00;101470.56;6328200;22;45873;-89
2022/03/02 16:15:47;;;;;;;;;52.00;39.75;;;;;19.35;100.00;101469.53;6331985;22;45342;-88
2022/03/02 16:18:20;;;;;;;;;51.50;39.00;;;;;19.25;100.00;101457.81;6332072;22;45274;-89
2022/03/02 16:20:47;;;;;;;;;54.25;40.25;;;;;19.16;100.00;101470.03;6329936;22;47356;-88
2022/03/02 16:23:33;;;;;;;;;45.50;35.00;;;;;19.16;100.00;101461.13;6330045;22;45270;-88
2022/03/02 16:26:01;;;;;;;;;49.00;38.25;;;;;19.13;100.00;101467.28;6331490;22;45422;-88
2022/03/02 16:28:28;;;;;;;;;46.50;36.00;;;;;19.12;100.00;101462.81;6329927;22;45740;-89
2022/03/02 16:30:56;;;;;;;;;46.75;37.25;;;;;19.10;100.00;101462.78;6331854;22;45540;-89
2022/03/02 16:33:23;;;;;;;;;47.75;39.25;;;;;19.07;100.00;101472.50;6332630;22;45238;-89
2022/03/02 16:35:49;;;;;;;;;49.75;38.50;;;;;18.97;100.00;101469.63;6330971;22;45352;-89
2022/03/02 16:38:16;;;;;;;;;47.75;38.25;;;;;18.98;100.00;101481.16;6332694;22;45343;-89
2022/03/02 16:40:43;;;;;;;;;48.75;38.75;;;;;18.95;100.00;101478.41;6332702;22;45353;-88
2022/03/02 16:43:11;;;;;;;;;43.25;36.75;;;;;18.93;100.00;101467.75;6328562;22;46110;-89
2022/03/02 16:45:37;;;;;;;;;46.00;35.75;;;;;18.90;100.00;101480.06;6330539;22;45333;-89
2022/03/02 16:48:03;;;;;;;;;48.75;39.00;;;;;18.84;100.00;101476.41;6331952;22;45452;-89
2022/03/02 16:50:29;;;;;;;;;43.00;35.75;;;;;18.78;100.00;101472.72;6357879;22;47095;-90
2022/03/02 16:52:56;;;;;;;;;44.00;37.25;;;;;18.80;100.00;101474.56;6332220;22;45299;-89
2022/03/02 16:55:22;;;;;;;;;30.50;23.00;;;;;18.70;100.00;101475.22;6332619;22;45309;-91
2022/03/02 16:57:49;;;;;;;;;48.75;39.00;;;;;18.70;100.00;101476.13;6328293;22;45443;-88
2022/03/02 17:00:17;;;;;;;;;50.25;38.25;;;;;18.63;100.00;101477.72;6330047;22;47292;-89
2022/03/02 17:02:45;;;;;;;;;46.75;37.25;;;;;18.58;100.00;101478.50;6331847;22;45338;-89
2022/03/02 17:05:12;;;;;;;;;45.50;38.50;;;;;18.50;100.00;101481.84;6330299;22;45330;-88
2022/03/02 17:07:38;;;;;;;;;50.25;37.25;;;;;18.38;100.00;101471.81;6332038;22;45377;-89
2022/03/02 17:10:05;;;;;;;;;45.25;35.75;;;;;18.31;100.00;101476.09;6329861;22;48237;-89
2022/03/02 17:12:30;;;;;;;;;47.00;36.25;;;;;18.21;100.00;101471.41;6330632;22;45339;-88
2022/03/02 17:14:56;;;;;;;;;47.75;38.50;;;;;18.19;100.00;101478.41;6332960;22;45232;-88
2022/03/02 17:17:22;;;;;;;;;46.50;36.25;;;;;18.02;100.00;101464.69;6329109;22;45497;-88
2022/03/02 17:19:50;;;;;;;;;46.50;37.00;;;;;17.98;100.00;101479.66;6332307;22;45499;-89
2022/03/02 17:22:16;;;;;;;;;44.00;36.00;;;;;17.90;100.00;101471.47;6331704;22;45656;-89
2022/03/02 17:24:45;;;;;;;;;46.25;38.75;;;;;17.82;100.00;101484.56;6331810;22;45451;-88
2022/03/02 17:27:11;;;;;;;;;46.00;38.00;;;;;17.76;100.00;101487.03;6330980;22;45439;-87
2022/03/02 17:29:36;;;;;;;;;46.75;37.50;;;;;17.70;100.00;101489.53;6332874;22;45776;-88
2022/03/02 17:32:01;;;;;;;;;42.00;36.50;;;;;17.59;100.00;101481.25;6325713;22;45630;-88
2022/03/02 17:34:27;;;;;;;;;42.25;36.25;;;;;17.51;100.00;101475.72;6331256;22;45915;-87
2022/03/02 17:36:52;;;;;;;;;46.00;35.75;;;;;17.44;100.00;101474.66;6330498;22;45295;-88
2022/03/02 17:39:17;;;;;;;;;49.00;39.25;;;;;17.41;100.00;101485.19;6330324;22;47249;-88
2022/03/02 17:41:44;;;;;;;;;51.25;37.75;;;;;17.38;100.00;101493.97;6331800;22;45274;-88
2022/03/02 17:44:09;;;;;;;;;44.00;34.50;;;;;17.28;100.00;101487.50;6331850;22;45387;-87
2022/03/02 17:46:36;;;;;;;;;50.00;38.50;;;;;17.28;100.00;101489.25;6323761;22;45370;-87
2022/03/02 17:49:03;;;;;;;;;43.25;36.25;;;;;17.17;100.00;101495.13;6331034;22;46281;-88
2022/03/02 17:51:33;;;;;;;;;55.00;40.00;;;;;17.13;100.00;101498.50;6331110;22;45395;-88
2022/03/02 17:54:08;;;;;;;;;52.00;40.25;;;;;17.13;100.00;101495.88;6331118;22;45357;-88
2022/03/02 17:56:34;;;;;;;;;50.50;42.00;;;;;17.03;100.00;101496.44;6328102;22;45623;-88
2022/03/02 17:59:02;;;;;;;;;43.75;33.50;;;;;16.94;100.00;101491.72;6330139;22;46145;-88
2022/03/02 18:01:29;;;;;;;;;48.75;38.75;;;;;16.95;100.00;101498.84;6329490;22;45607;-88
2022/03/02 18:03:54;;;;;;;;;56.25;44.00;;;;;16.89;100.00;101499.53;6329811;22;45432;-88
2022/03/02 18:06:19;;;;;;;;;51.50;42.00;;;;;16.87;100.00;101503.91;6330879;22;45416;-89
2022/03/02 18:08:45;;;;;;;;;54.50;43.00;;;;;16.82;100.00;101495.81;6332304;22;45443;-89
2022/03/02 18:11:11;;;;;;;;;51.25;44.25;;;;;16.77;100.00;101496.50;6330868;22;45245;-88
2022/03/02 18:13:37;;;;;;;;;52.75;44.25;;;;;16.72;100.00;101488.44;6332704;22;45569;-89
2022/03/02 18:16:03;;;;;;;;;54.75;44.75;;;;;16.65;100.00;101495.25;6330045;22;45522;-88
2022/03/02 18:18:28;;;;;;;;;60.00;45.75;;;;;16.68;100.00;101494.47;6330057;22;47517;-89
2022/03/02 18:20:54;;;;;;;;;59.75;46.25;;;;;16.70;100.00;101496.31;6329539;22;46349;-88
2022/03/02 18:23:20;;;;;;;;;55.75;44.75;;;;;16.68;100.00;101494.47;6329636;22;45523;-89
2022/03/02 18:25:46;;;;;;;;;54.50;44.25;;;;;16.68;100.00;101499.75;6332436;22;45362;-89
2022/03/02 18:28:11;;;;;;;;;58.50;47.00;;;;;16.59;100.00;101488.03;6355684;22;47408;-88
2022/03/02 18:30:37;;;;;;;;;65.75;49.50;;;;;16.59;100.00;101497.72;6334939;22;45349;-88
2022/03/02 18:33:02;;;;;;;;;59.75;45.25;;;;;16.58;100.00;101491.53;6333287;22;45468;-88